createdAt,value
2022-10-06T00:01:16.275Z,101949.72
2022-10-06T00:03:46.080Z,101947.25
2022-10-06T00:06:18.065Z,101957.84
2022-10-06T00:08:48.466Z,101965.06
2022-10-06T00:11:20.262Z,101971.31
2022-10-06T00:13:48.450Z,101971.53
2022-10-06T00:16:22.468Z,101974.25
2022-10-06T00:18:50.442Z,101980.53
2022-10-06T00:21:17.836Z,101990.28
2022-10-06T00:23:45.595Z,101992.22
2022-10-06T00:26:17.010Z,101996.69
2022-10-06T00:28:48.073Z,102002.97
2022-10-06T00:31:19.408Z,102000.47
2022-10-06T00:33:47.475Z,102011.97
2022-10-06T00:36:14.692Z,102011.22
2022-10-06T00:38:42.027Z,102026.22
2022-10-06T00:41:18.345Z,102024.56
2022-10-06T00:43:56.960Z,102024.66
2022-10-06T00:46:45.175Z,102029.97
2022-10-06T00:49:30.656Z,102036.16
2022-10-06T00:52:11.900Z,102033.59
2022-10-06T00:54:40.985Z,102048.53
2022-10-06T00:57:09.746Z,102041.63
2022-10-06T00:59:40.118Z,102039.00
2022-10-06T01:02:25.085Z,102053.09
2022-10-06T01:05:00.751Z,102047.03
2022-10-06T01:07:30.623Z,102055.84
2022-10-06T01:09:59.262Z,102061.25
2022-10-06T01:12:30.741Z,102064.88
2022-10-06T01:14:58.122Z,102069.34
2022-10-06T01:17:45.751Z,102069.53
2022-10-06T01:20:19.233Z,102073.94
2022-10-06T01:23:10.096Z,102078.41
2022-10-06T01:25:38.201Z,102089.84
2022-10-06T01:28:09.918Z,102087.34
2022-10-06T01:30:52.902Z,102101.44
2022-10-06T01:33:23.874Z,102102.41
2022-10-06T01:35:53.544Z,102104.25
2022-10-06T01:38:21.978Z,102113.91
2022-10-06T01:40:54.285Z,102110.56
2022-10-06T01:43:21.868Z,102116.72
2022-10-06T01:45:57.557Z,102111.59
2022-10-06T01:48:27.043Z,102108.19
2022-10-06T01:50:56.809Z,102116.09
2022-10-06T01:53:24.120Z,102120.56
2022-10-06T01:55:51.456Z,102120.56
2022-10-06T01:58:24.299Z,102128.50
2022-10-06T02:00:51.982Z,102128.56
2022-10-06T02:03:19.187Z,102143.53
2022-10-06T02:05:46.440Z,102130.41
2022-10-06T02:08:14.195Z,102140.19
2022-10-06T02:10:42.891Z,102144.53
2022-10-06T02:13:17.519Z,102144.59
2022-10-06T02:15:45.254Z,102145.44
2022-10-06T02:18:12.542Z,102150.78
2022-10-06T02:20:40.389Z,102150.84
2022-10-06T02:23:07.596Z,102159.69
2022-10-06T02:25:35.230Z,102158.06
2022-10-06T02:28:02.712Z,102167.75
2022-10-06T02:30:30.395Z,102174.88
2022-10-06T02:32:57.741Z,102175.81
2022-10-06T02:35:25.083Z,102182.09
2022-10-06T02:37:52.428Z,102190.88
2022-10-06T02:40:20.546Z,102191.84
2022-10-06T02:42:50.439Z,102192.91
2022-10-06T02:45:21.020Z,102198.28
2022-10-06T02:47:48.421Z,102192.25
2022-10-06T02:50:15.667Z,102195.00
2022-10-06T02:52:42.949Z,102209.13
2022-10-06T02:55:11.941Z,102217.97
2022-10-06T02:57:39.752Z,102220.78
2022-10-06T03:00:10.333Z,102217.38
2022-10-06T03:02:37.713Z,102222.81
2022-10-06T03:05:05.844Z,102233.41
2022-10-06T03:07:34.166Z,102230.94
2022-10-06T03:10:01.508Z,102244.19
2022-10-06T03:12:28.910Z,102241.66
2022-10-06T03:14:56.398Z,102231.22
2022-10-06T03:17:23.684Z,102248.91
2022-10-06T03:19:57.008Z,102244.69
2022-10-06T03:22:25.071Z,102248.25
2022-10-06T03:24:55.149Z,102258.88
2022-10-06T03:27:22.729Z,102261.63
2022-10-06T03:29:52.534Z,102262.59
2022-10-06T03:32:23.666Z,102256.53
2022-10-06T03:34:53.235Z,102274.09
2022-10-06T03:37:20.844Z,102275.13
2022-10-06T03:39:48.314Z,102278.72
2022-10-06T03:42:16.039Z,102284.06
2022-10-06T03:44:45.959Z,102299.00
2022-10-06T03:47:16.942Z,102296.47
2022-10-06T03:49:45.468Z,102287.88
2022-10-06T03:52:14.425Z,102291.50
2022-10-06T03:54:41.675Z,102296.84
2022-10-06T03:57:09.408Z,102303.06
2022-10-06T03:59:37.241Z,102304.88
2022-10-06T04:02:06.055Z,102314.56
2022-10-06T04:04:57.570Z,102321.69
2022-10-06T04:07:24.960Z,102332.25
2022-10-06T04:09:52.830Z,102332.34
2022-10-06T04:12:20.092Z,102336.75
2022-10-06T04:14:47.323Z,102336.84
2022-10-06T04:17:14.589Z,102343.03
2022-10-06T04:19:42.080Z,102343.97
2022-10-06T04:22:10.638Z,102355.38
2022-10-06T04:24:37.955Z,102354.56
2022-10-06T04:27:23.912Z,102359.00
2022-10-06T04:29:57.902Z,102362.59
2022-10-06T04:32:25.360Z,102347.78
2022-10-06T04:34:52.790Z,102360.91
2022-10-06T04:37:20.174Z,102364.50
2022-10-06T04:39:49.771Z,102365.50
2022-10-06T04:42:20.857Z,102369.00
2022-10-06T04:44:48.107Z,102379.53
2022-10-06T04:47:15.549Z,102374.28
2022-10-06T04:49:42.767Z,102379.63
2022-10-06T04:52:10.473Z,102383.19
2022-10-06T04:54:39.464Z,102396.34
2022-10-06T04:57:08.704Z,102387.63
2022-10-06T04:59:55.215Z,102386.88
2022-10-06T05:02:23.378Z,102385.16
2022-10-06T05:04:54.038Z,102391.38
2022-10-06T05:07:23.484Z,102396.66
2022-10-06T05:09:50.724Z,102406.34
2022-10-06T05:12:18.486Z,102412.56
2022-10-06T05:14:47.001Z,102433.59
2022-10-06T05:17:15.693Z,102424.94
2022-10-06T05:19:44.771Z,102428.50
2022-10-06T05:22:12.569Z,102437.28
2022-10-06T05:24:40.176Z,102443.47
2022-10-06T05:27:07.392Z,102444.41
2022-10-06T05:29:35.980Z,102447.06
2022-10-06T05:32:05.404Z,102455.88
2022-10-06T05:34:36.418Z,102452.50
2022-10-06T05:37:03.960Z,102456.03
2022-10-06T05:39:31.146Z,102454.44
2022-10-06T05:41:59.181Z,102465.84
2022-10-06T05:44:27.661Z,102470.25
2022-10-06T05:46:56.661Z,102466.84
2022-10-06T05:49:24.088Z,102471.25
2022-10-06T05:51:56.130Z,102475.72
2022-10-06T05:54:27.204Z,102478.38
2022-10-06T05:56:54.601Z,102490.63
2022-10-06T05:59:22.810Z,102492.50
2022-10-06T06:01:52.196Z,102491.63
2022-10-06T06:04:32.744Z,102506.50
2022-10-06T06:07:01.021Z,102507.44
2022-10-06T06:09:28.934Z,102501.31
2022-10-06T06:12:00.923Z,102514.41
2022-10-06T06:15:11.002Z,102518.78
2022-10-06T06:17:43.126Z,102517.03
2022-10-06T06:20:10.482Z,102517.91
2022-10-06T06:22:37.941Z,102522.22
2022-10-06T06:25:07.189Z,102526.53
2022-10-06T06:27:35.678Z,102528.28
2022-10-06T06:30:04.162Z,102534.31
2022-10-06T06:32:31.865Z,102527.31
2022-10-06T06:34:59.281Z,102535.97
2022-10-06T06:37:27.586Z,102538.53
2022-10-06T06:39:55.424Z,102539.31
2022-10-06T06:42:22.651Z,102544.44
2022-10-06T06:44:58.229Z,102545.25
2022-10-06T06:47:31.073Z,102543.41
2022-10-06T06:50:00.994Z,102551.16
2022-10-06T06:52:31.115Z,102555.38
2022-10-06T06:54:58.646Z,102563.94
2022-10-06T06:57:26.345Z,102566.44
2022-10-06T06:59:57.034Z,102561.06
2022-10-06T07:02:26.566Z,102560.94
2022-10-06T07:04:53.845Z,102572.19
2022-10-06T07:07:21.164Z,102572.91
2022-10-06T07:09:48.503Z,102578.09
2022-10-06T07:12:17.868Z,102588.50
2022-10-06T07:15:09.066Z,102588.44
2022-10-06T07:17:58.995Z,102591.03
2022-10-06T07:20:45.100Z,102606.69
2022-10-06T07:23:38.854Z,102601.41
2022-10-06T07:26:10.842Z,102611.81
2022-10-06T07:28:38.203Z,102618.78
2022-10-06T07:31:05.659Z,102622.22
2022-10-06T07:33:33.729Z,102626.53
2022-10-06T07:36:04.445Z,102627.34
2022-10-06T07:38:33.162Z,102640.38
2022-10-06T07:41:18.298Z,102657.81
2022-10-06T07:43:53.797Z,102665.56
2022-10-06T07:46:22.867Z,102659.38
2022-10-06T07:49:19.348Z,102656.72
2022-10-06T07:51:50.776Z,102664.50
2022-10-06T07:54:26.547Z,102660.94
2022-10-06T07:57:19.735Z,102666.09
2022-10-06T07:59:47.159Z,102666.03
2022-10-06T08:02:14.661Z,102661.53
2022-10-06T08:04:41.968Z,102664.97
2022-10-06T08:07:10.551Z,102682.31
2022-10-06T08:09:37.859Z,102671.75
2022-10-06T08:12:25.052Z,102676.00
2022-10-06T08:14:52.581Z,102678.53
2022-10-06T08:17:20.037Z,102678.41
2022-10-06T08:19:47.993Z,102688.78
2022-10-06T08:22:15.997Z,102688.66
2022-10-06T08:25:04.730Z,102685.94
2022-10-06T08:27:31.518Z,102698.91
2022-10-06T08:29:58.789Z,102699.59
2022-10-06T08:32:26.287Z,102699.47
2022-10-06T08:34:54.396Z,102708.94
2022-10-06T08:37:23.818Z,102707.16
2022-10-06T08:39:51.826Z,102710.47
2022-10-06T08:42:46.065Z,102717.25
2022-10-06T08:45:26.533Z,102723.28
2022-10-06T08:48:17.668Z,102723.97
2022-10-06T08:51:19.687Z,102730.78
2022-10-06T08:54:02.705Z,102728.84
2022-10-06T08:57:05.329Z,102733.00
2022-10-06T08:59:36.945Z,102730.22
2022-10-06T09:02:41.970Z,102734.44
2022-10-06T09:05:23.157Z,102742.13
2022-10-06T09:08:29.165Z,102750.63
2022-10-06T09:11:49.698Z,102746.91
2022-10-06T09:14:37.564Z,102754.53
2022-10-06T09:17:20.275Z,102752.50
2022-10-06T09:20:20.501Z,102758.44
2022-10-06T09:22:51.688Z,102767.00
2022-10-06T09:25:26.711Z,102765.88
2022-10-06T09:27:58.146Z,102774.47
2022-10-06T09:30:26.827Z,102767.28
2022-10-06T09:33:04.665Z,102773.22
2022-10-06T09:35:33.143Z,102776.44
2022-10-06T09:38:08.718Z,102776.16
2022-10-06T09:40:59.266Z,102770.56
2022-10-06T09:43:29.564Z,102774.69
2022-10-06T09:46:41.772Z,102771.59
2022-10-06T09:49:19.490Z,102774.66
2022-10-06T09:52:15.221Z,102779.50
2022-10-06T09:54:44.739Z,102786.94
2022-10-06T09:57:27.045Z,102783.13
2022-10-06T09:59:59.174Z,102782.00
2022-10-06T10:02:37.545Z,102784.53
2022-10-06T10:05:31.861Z,102779.91
2022-10-06T10:08:29.922Z,102786.75
2022-10-06T10:11:29.227Z,102776.69
2022-10-06T10:13:58.863Z,102779.06
2022-10-06T10:16:35.499Z,102787.72
2022-10-06T10:19:05.807Z,102795.38
2022-10-06T10:21:35.493Z,102790.91
2022-10-06T10:24:23.406Z,102799.66
2022-10-06T10:27:18.246Z,102790.66
2022-10-06T10:30:15.351Z,102801.50
2022-10-06T10:33:17.412Z,102792.00
2022-10-06T10:35:52.704Z,102793.59
2022-10-06T10:38:26.952Z,102796.97
2022-10-06T10:41:09.876Z,102794.19
2022-10-06T10:44:18.004Z,102797.47
2022-10-06T10:46:55.536Z,102789.34
2022-10-06T10:49:31.246Z,102782.88
2022-10-06T10:52:24.104Z,102787.91
2022-10-06T10:55:27.188Z,102794.66
2022-10-06T10:58:19.235Z,102792.38
2022-10-06T11:00:56.457Z,102795.41
2022-10-06T11:03:23.816Z,102802.94
2022-10-06T11:06:16.896Z,102796.72
2022-10-06T11:09:10.551Z,102798.91
2022-10-06T11:12:13.569Z,102796.81
2022-10-06T11:15:21.467Z,102803.88
2022-10-06T11:17:50.568Z,102805.88
2022-10-06T11:20:44.145Z,102808.06
2022-10-06T11:23:50.562Z,102799.25
2022-10-06T11:26:51.064Z,102800.84
2022-10-06T11:29:46.992Z,102793.34
2022-10-06T11:32:44.712Z,102801.63
2022-10-06T11:35:26.996Z,102802.78
2022-10-06T11:38:30.198Z,102807.53
2022-10-06T11:41:51.269Z,102811.41
2022-10-06T11:44:37.195Z,102803.31
2022-10-06T11:47:16.487Z,102806.75
2022-10-06T11:49:56.106Z,102807.88
2022-10-06T11:52:23.163Z,102806.41
2022-10-06T11:55:20.294Z,102802.81
2022-10-06T11:58:37.896Z,102802.72
2022-10-06T12:01:02.429Z,102786.56
2022-10-06T12:03:31.130Z,102801.25
2022-10-06T12:05:58.437Z,102789.59
2022-10-06T12:08:39.904Z,102786.72
2022-10-06T12:11:43.823Z,102794.22
2022-10-06T12:16:32.505Z,102785.84
2022-10-06T12:18:01.952Z,102788.75
2022-10-06T12:20:55.595Z,102783.69
2022-10-06T12:24:24.082Z,102776.81
2022-10-06T12:27:26.438Z,102784.06
2022-10-06T12:30:30.723Z,102777.50
2022-10-06T12:33:03.624Z,102780.78
2022-10-06T12:35:40.202Z,102780.56
2022-10-06T12:38:41.360Z,102772.81
2022-10-06T12:41:14.622Z,102783.19
2022-10-06T12:43:57.346Z,102772.50
2022-10-06T12:46:43.599Z,102773.34
2022-10-06T12:49:35.325Z,102774.13
2022-10-06T12:52:55.472Z,102772.41
2022-10-06T12:55:53.014Z,102774.22
2022-10-06T12:58:33.358Z,102767.97
2022-10-06T13:01:06.930Z,102772.41
2022-10-06T13:03:36.958Z,102763.38
2022-10-06T13:06:09.395Z,102774.81
2022-10-06T13:08:39.515Z,102768.59
2022-10-06T13:11:27.087Z,102769.53
2022-10-06T13:14:09.808Z,102771.47
2022-10-06T13:16:42.965Z,102762.81
2022-10-06T13:19:28.310Z,102766.66
2022-10-06T13:21:55.658Z,102762.00
2022-10-06T13:24:27.307Z,102763.09
2022-10-06T13:26:54.894Z,102758.03
2022-10-06T13:29:26.120Z,102758.88
2022-10-06T13:31:56.802Z,102764.00
2022-10-06T13:34:35.947Z,102756.72
2022-10-06T13:37:03.531Z,102764.25
2022-10-06T13:39:31.915Z,102765.56
2022-10-06T13:42:21.375Z,102762.91
2022-10-06T13:45:02.828Z,102768.84
2022-10-06T13:47:30.767Z,102757.50
2022-10-06T13:50:19.764Z,102761.22
2022-10-06T13:52:48.822Z,102762.72
2022-10-06T13:55:26.935Z,102758.16
2022-10-06T13:58:03.377Z,102766.03
2022-10-06T14:00:57.409Z,102766.88
2022-10-06T14:06:22.254Z,102770.53
2022-10-06T14:08:57.970Z,102768.91
2022-10-06T14:11:29.826Z,102760.31
2022-10-06T14:14:07.403Z,102762.22
2022-10-06T14:16:34.778Z,102758.88
2022-10-06T14:19:06.715Z,102765.94
2022-10-06T14:21:41.784Z,102757.91
2022-10-06T14:24:28.293Z,102764.47
2022-10-06T14:27:03.367Z,102765.56
2022-10-06T14:29:31.683Z,102753.31
2022-10-06T14:32:14.640Z,102755.75
2022-10-06T14:34:42.530Z,102753.81
2022-10-06T14:37:15.404Z,102757.78
2022-10-06T14:39:45.428Z,102745.59
2022-10-06T14:42:15.366Z,102768.72
2022-10-06T14:44:43.261Z,102761.56
2022-10-06T14:47:10.869Z,102763.53
2022-10-06T14:49:38.193Z,102757.97
2022-10-06T14:52:07.052Z,102751.97
2022-10-06T14:54:34.741Z,102752.91
2022-10-06T14:57:02.071Z,102755.69
2022-10-06T14:59:29.277Z,102753.16
2022-10-06T15:01:56.725Z,102754.34
2022-10-06T15:04:27.934Z,102757.78
2022-10-06T15:07:14.029Z,102756.56
2022-10-06T15:09:42.717Z,102760.94
2022-10-06T15:12:10.972Z,102754.38
2022-10-06T15:14:39.821Z,102744.91
2022-10-06T15:17:07.357Z,102741.97
2022-10-06T15:19:34.582Z,102742.41
2022-10-06T15:22:02.546Z,102753.03
2022-10-06T15:24:29.733Z,102739.34
2022-10-06T15:27:15.575Z,102735.78
2022-10-06T15:29:42.809Z,102730.22
2022-10-06T15:32:10.074Z,102721.69
2022-10-06T15:34:37.842Z,102723.88
2022-10-06T15:37:06.433Z,102719.28
2022-10-06T15:39:37.746Z,102724.78
2022-10-06T15:42:06.102Z,102718.41
2022-10-06T15:44:36.953Z,102727.69
2022-10-06T15:47:07.942Z,102723.16
2022-10-06T15:49:40.320Z,102722.63
2022-10-06T15:52:11.867Z,102725.69
2022-10-06T15:54:41.062Z,102726.16
2022-10-06T15:57:17.958Z,102723.59
2022-10-06T15:59:47.802Z,102725.22
2022-10-06T16:02:18.414Z,102717.31
2022-10-06T16:05:04.590Z,102725.06
2022-10-06T16:07:32.679Z,102726.56
2022-10-06T16:10:00.267Z,102730.72
2022-10-06T16:12:28.549Z,102733.88
2022-10-06T16:14:55.759Z,102724.94
2022-10-06T16:17:22.906Z,102724.78
2022-10-06T16:19:50.245Z,102725.63
2022-10-06T16:22:19.843Z,102733.09
2022-10-06T16:24:47.026Z,102732.19
2022-10-06T16:27:16.179Z,102728.44
2022-10-06T16:29:46.072Z,102727.16
2022-10-06T16:32:13.868Z,102727.34
2022-10-06T16:34:41.074Z,102732.69
2022-10-06T16:37:08.267Z,102724.75
2022-10-06T16:39:35.458Z,102733.38
2022-10-06T16:42:02.673Z,102734.03
2022-10-06T16:44:29.777Z,102734.63
2022-10-06T16:46:57.011Z,102735.19
2022-10-06T16:49:24.570Z,102734.75
2022-10-06T16:51:51.803Z,102731.69
2022-10-06T16:54:19.121Z,102733.91
2022-10-06T16:56:54.582Z,102739.50
2022-10-06T16:59:26.486Z,102742.56
2022-10-06T17:01:53.718Z,102736.78
2022-10-06T17:04:24.624Z,102733.59
2022-10-06T17:06:56.751Z,102737.53
2022-10-06T17:09:29.823Z,102737.94
2022-10-06T17:12:02.397Z,102735.63
2022-10-06T17:14:33.262Z,102738.66
2022-10-06T17:17:01.543Z,102740.75
2022-10-06T17:19:30.638Z,102741.00
2022-10-06T17:21:59.857Z,102733.41
2022-10-06T17:24:29.610Z,102736.38
2022-10-06T17:26:58.331Z,102731.34
2022-10-06T17:29:26.346Z,102728.97
2022-10-06T17:31:59.912Z,102729.22
2022-10-06T17:34:32.291Z,102727.69
2022-10-06T17:37:02.009Z,102736.69
2022-10-06T17:39:29.262Z,102737.72
2022-10-06T17:41:56.959Z,102741.47
2022-10-06T17:44:26.945Z,102739.03
2022-10-06T17:47:00.565Z,102731.41
2022-10-06T17:49:32.631Z,102735.09
2022-10-06T17:52:00.225Z,102730.00
2022-10-06T17:54:28.533Z,102728.41
2022-10-06T17:56:58.185Z,102744.47
2022-10-06T17:59:31.585Z,102740.22
2022-10-06T18:02:02.965Z,102728.19
2022-10-06T18:04:30.783Z,102731.06
2022-10-06T18:06:57.977Z,102735.66
2022-10-06T18:09:26.059Z,102743.84
2022-10-06T18:11:56.412Z,102735.25
2022-10-06T18:14:33.328Z,102732.84
2022-10-06T18:17:03.864Z,102727.75
2022-10-06T18:19:36.165Z,102726.19
2022-10-06T18:22:10.251Z,102731.63
2022-10-06T18:24:40.130Z,102731.84
2022-10-06T18:27:08.163Z,102733.75
2022-10-06T18:29:38.940Z,102732.13
2022-10-06T18:32:40.557Z,102730.44
2022-10-06T18:37:43.014Z,102728.91
2022-10-06T18:40:11.477Z,102722.84
2022-10-06T18:42:39.423Z,102719.53
2022-10-06T18:45:27.996Z,102714.41
2022-10-06T18:48:14.047Z,102711.09
2022-10-06T18:50:41.320Z,102716.53
2022-10-06T18:53:08.632Z,102708.78
2022-10-06T18:55:35.847Z,102708.16
2022-10-06T18:58:04.558Z,102698.69
2022-10-06T19:00:32.254Z,102704.91
2022-10-06T19:02:59.437Z,102698.09
2022-10-06T19:05:26.860Z,102707.88
2022-10-06T19:07:54.512Z,102706.28
2022-10-06T19:10:21.994Z,102709.06
2022-10-06T19:12:49.655Z,102711.81
2022-10-06T19:15:20.814Z,102718.06
2022-10-06T19:17:50.175Z,102714.69
2022-10-06T19:20:18.490Z,102715.69
2022-10-06T19:22:47.454Z,102711.41
2022-10-06T19:25:18.554Z,102719.47
2022-10-06T19:27:48.871Z,102723.13
2022-10-06T19:30:16.081Z,102719.78
2022-10-06T19:32:43.433Z,102716.50
2022-10-06T19:35:11.027Z,102724.50
2022-10-06T19:37:39.057Z,102717.66
2022-10-06T19:40:08.700Z,102717.78
2022-10-06T19:42:48.389Z,102720.47
2022-10-06T19:45:17.566Z,102715.28
2022-10-06T19:47:46.177Z,102717.16
2022-10-06T19:50:17.051Z,102715.44
2022-10-06T19:52:45.198Z,102719.94
2022-10-06T19:55:12.646Z,102720.91
2022-10-06T19:57:40.017Z,102711.38
2022-10-06T20:00:10.072Z,102716.63
2022-10-06T20:02:43.132Z,102714.16
2022-10-06T20:05:14.749Z,102711.56
2022-10-06T20:07:45.560Z,102718.66
2022-10-06T20:10:13.419Z,102713.41
2022-10-06T20:12:44.030Z,102717.94
2022-10-06T20:15:12.843Z,102712.84
2022-10-06T20:17:42.340Z,102719.09
2022-10-06T20:20:10.384Z,102713.09
2022-10-06T20:22:37.558Z,102714.06
2022-10-06T20:25:07.171Z,102713.31
2022-10-06T20:27:35.959Z,102714.31
2022-10-06T20:30:03.907Z,102715.25
2022-10-06T20:32:31.052Z,102705.72
2022-10-06T20:34:58.260Z,102705.78
2022-10-06T20:37:25.448Z,102711.06
2022-10-06T20:40:11.426Z,102711.19
2022-10-06T20:42:41.341Z,102703.44
2022-10-06T20:45:09.305Z,102706.16
2022-10-06T20:47:39.267Z,102708.88
2022-10-06T20:50:07.668Z,102702.00
2022-10-06T20:52:34.837Z,102704.69
2022-10-06T20:55:01.984Z,102701.28
2022-10-06T20:57:33.695Z,102702.25
2022-10-06T21:00:04.597Z,102698.78
2022-10-06T21:02:32.035Z,102696.22
2022-10-06T21:04:59.846Z,102695.41
2022-10-06T21:07:27.206Z,102698.25
2022-10-06T21:09:54.393Z,102692.28
2022-10-06T21:12:21.665Z,102693.28
2022-10-06T21:14:48.837Z,102693.31
2022-10-06T21:17:16.020Z,102691.66
2022-10-06T21:19:43.412Z,102683.88
2022-10-06T21:22:10.745Z,102685.69
2022-10-06T21:24:37.911Z,102677.03
2022-10-06T21:27:05.096Z,102675.38
2022-10-06T21:29:32.349Z,102686.81
2022-10-06T21:31:59.713Z,102680.75
2022-10-06T21:34:26.873Z,102678.25
2022-10-06T21:36:54.001Z,102678.28
2022-10-06T21:39:21.248Z,102673.88
2022-10-06T21:41:48.535Z,102667.81
2022-10-06T21:44:19.752Z,102668.75
2022-10-06T21:46:55.980Z,102667.00
2022-10-06T21:49:25.501Z,102666.13
2022-10-06T21:51:56.240Z,102654.84
2022-10-06T21:54:24.212Z,102655.78
2022-10-06T21:56:52.031Z,102656.63
2022-10-06T21:59:19.374Z,102648.00
2022-10-06T22:01:50.214Z,102650.66
2022-10-06T22:04:18.453Z,102648.94
2022-10-06T22:06:50.041Z,102643.69
2022-10-06T22:09:20.764Z,102649.81
2022-10-06T22:11:49.123Z,102640.28
2022-10-06T22:14:19.946Z,102641.19
2022-10-06T22:16:48.035Z,102637.78
2022-10-06T22:19:16.408Z,102636.94
2022-10-06T22:21:48.475Z,102630.06
2022-10-06T22:24:21.795Z,102635.31
2022-10-06T22:26:50.166Z,102636.16
2022-10-06T22:29:20.241Z,102637.06
2022-10-06T22:31:48.622Z,102630.19
2022-10-06T22:34:20.507Z,102635.47
2022-10-06T22:36:50.534Z,102629.38
2022-10-06T22:39:18.274Z,102624.16
2022-10-06T22:41:45.641Z,102622.47
2022-10-06T22:44:12.825Z,102625.13
2022-10-06T22:46:40.075Z,102622.50
2022-10-06T22:49:07.311Z,102620.81
2022-10-06T22:51:35.459Z,102615.63
2022-10-06T22:54:03.205Z,102614.81
2022-10-06T22:56:34.442Z,102617.47
2022-10-06T22:59:02.016Z,102610.59
2022-10-06T23:01:30.720Z,102611.50
2022-10-06T23:03:58.537Z,102613.31
2022-10-06T23:06:26.743Z,102606.38
2022-10-06T23:08:53.890Z,102599.47
2022-10-06T23:11:22.942Z,102603.81
2022-10-06T23:13:50.744Z,102595.16
2022-10-06T23:16:19.963Z,102595.19
2022-10-06T23:18:48.356Z,102592.59
2022-10-06T23:21:23.841Z,102596.13
2022-10-06T23:24:00.213Z,102593.59
2022-10-06T23:26:28.238Z,102587.53
2022-10-06T23:28:59.983Z,102590.25
2022-10-06T23:31:29.769Z,102585.06
2022-10-06T23:33:57.550Z,102587.72
2022-10-06T23:36:24.799Z,102587.75
2022-10-06T23:38:52.064Z,102580.81
2022-10-06T23:41:20.246Z,102577.38
2022-10-06T23:43:47.594Z,102573.06
2022-10-06T23:46:15.406Z,102573.06
2022-10-06T23:48:43.278Z,102565.28
2022-10-06T23:51:15.324Z,102567.03
2022-10-06T23:53:43.175Z,102564.47
2022-10-06T23:56:11.332Z,102562.72
2022-10-06T23:58:39.073Z,102560.19
